Avalon, PA

1:44 PM EDT on March 29, 2015 (GMT -0400)
Brighton Heights | | Change Station
CLOSE
Current Station
Personal Weather Station
Location: Pittsburgh, PA
Elevation: 906 ft
Nearby Weather Stations

Elev 906 ft 40.48 °N, 80.04 °W | Updated 10 minutes ago

Clear
Clear
40.3 °F
Feels Like 40 °F
N
2.7
Wind Variable Wind from ESE

Today
High -- | Low -- °F
--% Chance of Precip.
Yesterday
High -- | Low -- °F
Precip. -- in
7:09 AM 7:41 PM
Waxing Gibbous, 73% visible
Pressure 30.36 in
Visibility 10.0 miles
Clouds Scattered Clouds 25000 ft
Windchill 40 °F
Dew Point 16 °F
Humidity 37%
Rainfall 0.00 in
Snow Depth Not available.
UV 7 out of 12
Pollen 6.00 out of 12
Air Quality Not available.
Flu Activity Not available.
METAR KPIT 291651Z 24010KT 10SM SCT250 02/M13 A3029 RMK AO2 SLP281 T00221128

More Conditions Fewer Conditions

Pressure 30.36 in
Visibility 10.0 miles
Clouds Scattered Clouds 25000 ft
Windchill 40 °F
Dew Point 16 °F
Humidity 37%
Rainfall 0.00 in
Snow Depth Not available.
UV 7 out of 12
Pollen 6.00 out of 12
Air Quality Not available.
Flu Activity Not available.
METAR KPIT 291651Z 24010KT 10SM SCT250 02/M13 A3029 RMK AO2 SLP281 T00221128

More Conditions Fewer Conditions

10-Day Weather Forecast

Almanac

Astronomy

Mar. 29, 2015 Rise Set
Actual Time
Civil Twilight
Nautical Twilight
Astronomical Twilight
Moon
Length of Visible Light
Length of Day
Tomorrow will be .
, % of the Moon is Illuminated

Today's Extremes

State Highs State Lows

Community

WunderPhotos

Upload Photos

1,809,307 photos uploaded!

WunderBlogs® & News

Nearby

Air Quality

  Air Quality AQ Index Pollutant
Not available.

Snow Depth

Station Depth Elevation

Earthquake Activity

City Distance Mag. Time & Date
Minimum magnitude displayed is 2.5.

Coastal Water Temperatures

Place Temperature

Stations

Nearby Weather Stations

Station Location Temp. Windchill Dew Point Humidity Wind Precip. Elev Updated Type